Time,TemperatureF,DewpointF,PressureIn,WindDirection,WindDirectionDegrees,WindSpeedMPH,WindSpeedGustMPH,Humidity,HourlyPrecipIn,Conditions,Clouds,dailyrainin,SoftwareType,DateUTC
2013-01-11 00:01:00,22.7,16.6,29.64,ENE,68,0.0,1.8,77,0.00,,,0.00,WUHU216HW,2013-01-11 07:01:00,
2013-01-11 00:11:00,22.5,16.4,29.65,ENE,68,0.4,1.8,77,0.00,,,0.00,WUHU216HW,2013-01-11 07:11:00,
2013-01-11 00:21:00,22.3,16.2,29.65,ENE,68,1.1,2.2,77,0.00,,,0.00,WUHU216HW,2013-01-11 07:21:00,
2013-01-11 00:31:00,22.3,16.5,29.66,ENE,68,1.8,1.8,78,0.00,,,0.00,WUHU216HW,2013-01-11 07:31:00,
2013-01-11 00:41:00,22.0,16.1,29.66,ENE,68,1.3,1.8,78,0.00,,,0.00,WUHU216HW,2013-01-11 07:41:00,
2013-01-11 00:51:00,22.0,16.1,29.66,ENE,68,2.0,2.0,78,0.00,,,0.00,WUHU216HW,2013-01-11 07:51:00,
2013-01-11 01:01:00,22.0,16.1,29.66,ENE,68,1.3,2.5,78,0.00,,,0.00,WUHU216HW,2013-01-11 08:01:00,
2013-01-11 01:11:00,22.0,16.5,29.66,ENE,68,0.4,1.1,79,0.00,,,0.00,WUHU216HW,2013-01-11 08:11:00,
2013-01-11 01:21:00,21.8,15.9,29.66,ENE,68,1.8,1.8,78,0.00,,,0.00,WUHU216HW,2013-01-11 08:21:00,
2013-01-11 01:31:00,21.8,16.3,29.66,ENE,68,1.3,2.0,79,0.00,,,0.00,WUHU216HW,2013-01-11 08:31:00,
2013-01-11 01:41:00,22.0,16.5,29.66,ENE,68,1.3,1.3,79,0.00,,,0.00,WUHU216HW,2013-01-11 08:41:00,
2013-01-11 01:51:00,22.0,16.5,29.67,ENE,68,0.4,1.6,79,0.00,,,0.00,WUHU216HW,2013-01-11 08:51:00,
2013-01-11 02:01:00,22.0,16.5,29.67,ENE,68,0.0,0.4,79,0.00,,,0.00,WUHU216HW,2013-01-11 09:01:00,
2013-01-11 02:11:00,21.8,15.9,29.67,ENE,68,1.1,1.1,78,0.00,,,0.00,WUHU216HW,2013-01-11 09:11:00,
2013-01-11 02:21:00,21.6,16.1,29.67,ENE,68,0.2,1.1,79,0.00,,,0.00,WUHU216HW,2013-01-11 09:21:00,
2013-01-11 02:31:00,21.2,15.8,29.68,ENE,68,0.2,0.9,79,0.00,,,0.00,WUHU216HW,2013-01-11 09:31:00,
2013-01-11 02:42:00,21.2,16.0,29.68,ENE,68,0.4,0.4,80,0.00,,,0.00,WUHU216HW,2013-01-11 09:42:00,
2013-01-11 02:52:00,21.2,16.0,29.69,ENE,68,0.4,0.9,80,0.00,,,0.00,WUHU216HW,2013-01-11 09:52:00,
2013-01-11 03:02:00,21.2,16.0,29.69,ENE,68,0.4,1.6,80,0.00,,,0.00,WUHU216HW,2013-01-11 10:02:00,
2013-01-11 03:12:00,21.2,16.3,29.69,ENE,68,0.0,1.1,81,0.00,,,0.00,WUHU216HW,2013-01-11 10:12:00,
2013-01-11 03:22:00,21.2,16.3,29.69,ENE,68,0.2,0.4,81,0.00,,,0.00,WUHU216HW,2013-01-11 10:22:00,
2013-01-11 03:32:00,21.2,16.3,29.69,ENE,68,0.0,0.4,81,0.00,,,0.00,WUHU216HW,2013-01-11 10:32:00,
2013-01-11 03:42:00,21.2,16.3,29.69,ENE,68,0.0,0.0,81,0.00,,,0.00,WUHU216HW,2013-01-11 10:42:00,
2013-01-11 03:52:00,21.2,16.3,29.69,ENE,68,0.0,0.0,81,0.00,,,0.00,WUHU216HW,2013-01-11 10:52:00,
2013-01-11 04:02:00,21.2,16.3,29.69,ENE,68,0.2,1.1,81,0.00,,,0.00,WUHU216HW,2013-01-11 11:02:00,
2013-01-11 04:12:00,21.1,15.8,29.69,ENE,68,0.0,0.4,80,0.00,,,0.00,WUHU216HW,2013-01-11 11:12:00,
2013-01-11 04:22:00,20.9,15.7,29.69,ENE,68,0.0,0.4,80,0.00,,,0.00,WUHU216HW,2013-01-11 11:22:00,
2013-01-11 04:32:00,20.5,15.3,29.69,ENE,68,0.0,0.9,80,0.00,,,0.00,WUHU216HW,2013-01-11 11:32:00,
2013-01-11 04:42:00,20.0,14.8,29.69,ENE,68,1.3,1.3,80,0.00,,,0.00,WUHU216HW,2013-01-11 11:42:00,
2013-01-11 04:52:00,19.3,13.8,29.70,ENE,68,0.7,1.3,79,0.00,,,0.00,WUHU216HW,2013-01-11 11:52:00,
2013-01-11 05:02:00,18.9,13.7,29.70,ENE,68,1.1,1.1,80,0.00,,,0.00,WUHU216HW,2013-01-11 12:02:00,
2013-01-11 05:12:00,18.7,13.8,29.70,ENE,68,1.6,1.6,81,0.00,,,0.00,WUHU216HW,2013-01-11 12:12:00,
2013-01-11 05:22:00,18.5,13.9,29.70,ENE,68,0.4,1.1,82,0.00,,,0.00,WUHU216HW,2013-01-11 12:22:00,
2013-01-11 05:32:00,18.4,13.7,29.71,ENE,68,1.3,1.6,82,0.00,,,0.00,WUHU216HW,2013-01-11 12:32:00,
2013-01-11 05:42:00,18.2,12.7,29.71,ENE,68,0.9,2.9,79,0.00,,,0.00,WUHU216HW,2013-01-11 12:42:00,
2013-01-11 05:52:00,18.2,12.7,29.72,ENE,68,1.1,1.8,79,0.00,,,0.00,WUHU216HW,2013-01-11 12:52:00,
2013-01-11 06:02:00,18.2,12.7,29.72,ENE,68,0.9,1.6,79,0.00,,,0.00,WUHU216HW,2013-01-11 13:02:00,
2013-01-11 06:12:00,18.4,12.5,29.72,ENE,68,1.1,1.1,78,0.00,,,0.00,WUHU216HW,2013-01-11 13:12:00,
2013-01-11 06:23:00,18.2,12.1,29.73,ENE,68,2.9,3.1,77,0.00,,,0.00,WUHU216HW,2013-01-11 13:23:00,
2013-01-11 06:33:00,17.8,11.7,29.73,ENE,68,1.8,2.2,77,0.00,,,0.00,WUHU216HW,2013-01-11 13:33:00,
2013-01-11 06:43:00,17.5,11.7,29.73,ENE,68,1.3,2.0,78,0.00,,,0.00,WUHU216HW,2013-01-11 13:43:00,
2013-01-11 06:53:00,17.3,11.8,29.74,ENE,68,0.4,2.5,79,0.00,,,0.00,WUHU216HW,2013-01-11 13:53:00,
2013-01-11 07:03:00,17.1,11.6,29.74,ENE,68,0.7,1.8,79,0.00,,,0.00,WUHU216HW,2013-01-11 14:03:00,
2013-01-11 07:13:00,17.3,12.1,29.74,ENE,68,0.0,1.3,80,0.00,,,0.00,WUHU216HW,2013-01-11 14:13:00,
2013-01-11 07:23:00,17.3,12.3,29.75,ENE,68,1.8,2.0,81,0.00,,,0.00,WUHU216HW,2013-01-11 14:23:00,
2013-01-11 07:33:00,17.1,12.3,29.76,ENE,68,0.0,1.1,81,0.00,,,0.00,WUHU216HW,2013-01-11 14:33:00,
2013-01-11 07:43:00,17.1,12.3,29.76,ENE,68,0.4,1.1,81,0.00,,,0.00,WUHU216HW,2013-01-11 14:43:00,
2013-01-11 07:53:00,16.9,12.1,29.76,ENE,68,0.2,1.8,81,0.00,,,0.00,WUHU216HW,2013-01-11 14:53:00,
2013-01-11 08:03:00,16.9,12.1,29.77,ENE,68,0.7,1.1,81,0.00,,,0.00,WUHU216HW,2013-01-11 15:03:00,
2013-01-11 08:13:00,16.9,12.1,29.77,ENE,68,0.4,0.7,81,0.00,,,0.00,WUHU216HW,2013-01-11 15:13:00,
2013-01-11 08:23:00,16.7,11.9,29.78,ENE,68,0.4,1.3,81,0.00,,,0.00,WUHU216HW,2013-01-11 15:23:00,
2013-01-11 08:33:00,16.7,11.9,29.78,ENE,68,0.7,1.3,81,0.00,,,0.00,WUHU216HW,2013-01-11 15:33:00,
2013-01-11 08:43:00,16.7,11.9,29.79,ENE,68,0.4,1.1,81,0.00,,,0.00,WUHU216HW,2013-01-11 15:43:00,
2013-01-11 08:53:00,16.7,11.9,29.79,ENE,68,0.7,1.1,81,0.00,,,0.00,WUHU216HW,2013-01-11 15:53:00,
2013-01-11 09:04:00,16.7,11.6,29.79,ENE,68,0.9,1.1,80,0.00,,,0.00,WUHU216HW,2013-01-11 16:04:00,
2013-01-11 09:14:00,16.9,11.8,29.80,ENE,68,0.4,0.9,80,0.00,,,0.00,WUHU216HW,2013-01-11 16:14:00,
2013-01-11 09:24:00,17.5,12.2,29.80,ENE,68,1.1,1.3,80,0.00,,,0.00,WUHU216HW,2013-01-11 16:24:00,
2013-01-11 09:34:00,17.8,12.3,29.81,ENE,68,0.4,1.1,79,0.00,,,0.00,WUHU216HW,2013-01-11 16:34:00,
2013-01-11 09:44:00,18.0,12.5,29.81,ENE,68,0.9,1.1,79,0.00,,,0.00,WUHU216HW,2013-01-11 16:44:00,
2013-01-11 09:54:00,18.4,12.9,29.81,ENE,68,0.7,1.6,79,0.00,,,0.00,WUHU216HW,2013-01-11 16:54:00,
2013-01-11 10:04:00,18.9,13.1,29.82,ENE,68,0.2,0.9,78,0.00,,,0.00,WUHU216HW,2013-01-11 17:04:00,
2013-01-11 10:14:00,19.3,13.4,29.82,ENE,68,0.9,1.1,78,0.00,,,0.00,WUHU216HW,2013-01-11 17:14:00,
2013-01-11 10:24:00,20.0,13.9,29.83,ENE,68,0.4,1.1,77,0.00,,,0.00,WUHU216HW,2013-01-11 17:24:00,
2013-01-11 10:34:00,20.2,13.7,29.83,ENE,68,0.4,1.1,76,0.00,,,0.00,WUHU216HW,2013-01-11 17:34:00,
2013-01-11 10:44:00,19.8,12.8,29.84,ENE,68,1.1,1.8,74,0.00,,,0.00,WUHU216HW,2013-01-11 17:44:00,
2013-01-11 10:54:00,19.8,13.3,29.84,ENE,68,0.4,1.8,76,0.00,,,0.00,WUHU216HW,2013-01-11 17:54:00,
2013-01-11 11:04:00,20.0,13.2,29.84,ENE,68,0.4,2.0,75,0.00,,,0.00,WUHU216HW,2013-01-11 18:04:00,
2013-01-11 11:14:00,20.3,13.6,29.84,ENE,68,0.9,2.2,75,0.00,,,0.00,WUHU216HW,2013-01-11 18:14:00,
2013-01-11 11:24:00,20.9,13.9,29.85,ENE,68,1.1,1.8,74,0.00,,,0.00,WUHU216HW,2013-01-11 18:24:00,
2013-01-11 11:34:00,21.1,14.3,29.85,ENE,68,0.7,1.6,75,0.00,,,0.00,WUHU216HW,2013-01-11 18:34:00,
2013-01-11 11:44:00,21.2,14.2,29.85,ENE,68,1.1,1.6,74,0.00,,,0.00,WUHU216HW,2013-01-11 18:44:00,
2013-01-11 11:54:00,21.2,13.9,29.85,ENE,68,1.8,2.2,73,0.00,,,0.00,WUHU216HW,2013-01-11 18:54:00,
2013-01-11 12:05:00,21.6,14.2,29.85,ENE,68,2.0,2.5,73,0.00,,,0.00,WUHU216HW,2013-01-11 19:05:00,
2013-01-11 12:15:00,22.1,14.5,29.85,ENE,68,1.1,2.5,72,0.00,,,0.00,WUHU216HW,2013-01-11 19:15:00,
2013-01-11 12:25:00,22.9,15.2,29.85,ENE,68,1.6,2.9,72,0.00,,,0.00,WUHU216HW,2013-01-11 19:25:00,
2013-01-11 12:35:00,23.2,14.6,29.84,ENE,68,1.6,3.1,69,0.00,,,0.00,WUHU216HW,2013-01-11 19:35:00,
2013-01-11 12:45:00,23.8,14.7,29.84,ENE,68,2.5,3.4,68,0.00,,,0.00,WUHU216HW,2013-01-11 19:45:00,
2013-01-11 12:55:00,23.6,14.9,29.84,ENE,68,2.9,3.4,69,0.00,,,0.00,WUHU216HW,2013-01-11 19:55:00,
2013-01-11 13:05:00,23.0,14.0,29.84,ENE,68,2.5,2.9,68,0.00,,,0.00,WUHU216HW,2013-01-11 20:05:00,
2013-01-11 13:15:00,23.2,14.2,29.85,ENE,68,2.2,4.7,68,0.00,,,0.00,WUHU216HW,2013-01-11 20:15:00,
2013-01-11 13:25:00,23.4,14.1,29.85,ENE,68,2.5,4.0,67,0.00,,,0.00,WUHU216HW,2013-01-11 20:25:00,
2013-01-11 13:35:00,23.2,13.9,29.85,ENE,68,2.2,2.9,67,0.00,,,0.00,WUHU216HW,2013-01-11 20:35:00,
2013-01-11 13:45:00,23.8,14.7,29.86,ENE,68,2.0,2.5,68,0.00,,,0.00,WUHU216HW,2013-01-11 20:45:00,
2013-01-11 13:55:00,24.1,14.3,29.87,ENE,68,2.9,2.9,66,0.00,,,0.00,WUHU216HW,2013-01-11 20:55:00,
2013-01-11 14:05:00,24.5,14.7,29.87,ENE,68,1.1,2.9,66,0.00,,,0.00,WUHU216HW,2013-01-11 21:05:00,
2013-01-11 14:15:00,24.1,14.0,29.87,ENE,68,1.6,3.4,65,0.00,,,0.00,WUHU216HW,2013-01-11 21:15:00,
2013-01-11 14:25:00,23.4,13.3,29.87,ENE,68,0.9,3.1,65,0.00,,,0.00,WUHU216HW,2013-01-11 21:25:00,
2013-01-11 14:35:00,23.8,13.7,29.88,ENE,68,1.8,3.4,65,0.00,,,0.00,WUHU216HW,2013-01-11 21:35:00,
2013-01-11 14:45:00,24.1,14.3,29.88,ENE,68,1.1,2.7,66,0.00,,,0.00,WUHU216HW,2013-01-11 21:45:00,
2013-01-11 14:55:00,24.1,14.3,29.89,ENE,68,0.7,2.0,66,0.00,,,0.00,WUHU216HW,2013-01-11 21:55:00,
2013-01-11 15:05:00,24.3,14.1,29.89,ENE,68,0.7,2.5,65,0.00,,,0.00,WUHU216HW,2013-01-11 22:05:00,
2013-01-11 15:15:00,24.1,14.0,29.89,ENE,68,1.3,1.3,65,0.00,,,0.00,WUHU216HW,2013-01-11 22:15:00,
2013-01-11 15:25:00,24.1,14.0,29.90,ENE,68,2.9,2.9,65,0.00,,,0.00,WUHU216HW,2013-01-11 22:25:00,
2013-01-11 15:35:00,23.9,13.9,29.90,ENE,68,0.4,3.1,65,0.00,,,0.00,WUHU216HW,2013-01-11 22:35:00,
2013-01-11 15:46:00,23.4,13.0,29.90,ENE,68,2.0,4.3,64,0.00,,,0.00,WUHU216HW,2013-01-11 22:46:00,
2013-01-11 15:56:00,23.0,13.0,29.91,ENE,68,1.3,4.0,65,0.00,,,0.00,WUHU216HW,2013-01-11 22:56:00,
2013-01-11 16:06:00,22.9,13.1,29.91,ENE,68,3.4,3.4,66,0.00,,,0.00,WUHU216HW,2013-01-11 23:06:00,
2013-01-11 16:16:00,22.7,13.0,29.92,ENE,68,0.9,2.5,66,0.00,,,0.00,WUHU216HW,2013-01-11 23:16:00,
2013-01-11 16:26:00,22.3,13.0,29.92,ENE,68,1.8,2.2,67,0.00,,,0.00,WUHU216HW,2013-01-11 23:26:00,
2013-01-11 16:36:00,22.5,13.5,29.92,ENE,68,1.1,1.8,68,0.00,,,0.00,WUHU216HW,2013-01-11 23:36:00,
2013-01-11 16:46:00,22.3,13.3,29.92,ENE,68,1.6,1.8,68,0.00,,,0.00,WUHU216HW,2013-01-11 23:46:00,
2013-01-11 16:56:00,22.1,13.5,29.92,ENE,68,0.7,1.3,69,0.00,,,0.00,WUHU216HW,2013-01-11 23:56:00,
2013-01-11 17:06:00,22.0,13.3,29.92,ENE,68,0.9,1.8,69,0.00,,,0.00,WUHU216HW,2013-01-12 00:06:00,
2013-01-11 17:16:00,22.1,13.5,29.92,ENE,68,1.1,1.1,69,0.00,,,0.00,WUHU216HW,2013-01-12 00:16:00,
2013-01-11 17:26:00,22.1,13.1,29.92,ENE,68,0.7,0.7,68,0.00,,,0.00,WUHU216HW,2013-01-12 00:26:00,
2013-01-11 17:36:00,22.0,13.3,29.93,ENE,68,0.4,1.1,69,0.00,,,0.00,WUHU216HW,2013-01-12 00:36:00,
2013-01-11 17:46:00,22.1,13.5,29.93,ENE,68,0.2,1.1,69,0.00,,,0.00,WUHU216HW,2013-01-12 00:46:00,
2013-01-11 17:56:00,22.5,13.9,29.93,ENE,68,0.0,0.4,69,0.00,,,0.00,WUHU216HW,2013-01-12 00:56:00,
2013-01-11 18:06:00,22.7,14.0,29.93,ENE,68,0.0,0.0,69,0.00,,,0.00,WUHU216HW,2013-01-12 01:06:00,
2013-01-11 19:10:00,22.1,13.5,29.94,ENE,68,0.7,0.9,69,0.00,,,0.00,WUHU216HW,2013-01-12 02:10:00,
2013-01-11 19:20:00,21.8,13.1,29.94,ENE,68,0.9,0.9,69,0.00,,,0.00,WUHU216HW,2013-01-12 02:20:00,
2013-01-11 19:30:00,21.4,12.8,29.94,ENE,68,0.0,0.9,69,0.00,,,0.00,WUHU216HW,2013-01-12 02:30:00,
2013-01-11 19:42:00,21.2,12.6,29.94,ENE,68,1.1,1.1,69,0.00,,,0.00,WUHU216HW,2013-01-12 02:42:00,
2013-01-11 19:52:00,20.7,12.1,29.94,ENE,68,0.0,1.3,69,0.00,,,0.00,WUHU216HW,2013-01-12 02:52:00,
2013-01-11 20:02:00,20.7,12.4,29.94,ENE,68,0.0,0.0,70,0.00,,,0.00,WUHU216HW,2013-01-12 03:02:00,
2013-01-11 20:12:00,20.5,12.2,29.94,ENE,68,0.0,0.0,70,0.00,,,0.00,WUHU216HW,2013-01-12 03:12:00,
2013-01-11 20:22:00,20.2,11.9,29.94,ENE,68,0.0,0.0,70,0.00,,,0.00,WUHU216HW,2013-01-12 03:22:00,
2013-01-11 20:32:00,19.6,11.3,29.94,ENE,68,0.4,0.9,70,0.00,,,0.00,WUHU216HW,2013-01-12 03:32:00,
2013-01-11 20:42:00,19.1,10.8,29.94,ENE,68,0.2,0.7,70,0.00,,,0.00,WUHU216HW,2013-01-12 03:42:00,
2013-01-11 20:52:00,18.5,10.6,29.94,ENE,68,1.1,1.1,71,0.00,,,0.00,WUHU216HW,2013-01-12 03:52:00,
2013-01-11 21:03:00,17.6,9.8,29.94,ENE,68,0.4,1.1,71,0.00,,,0.00,WUHU216HW,2013-01-12 04:03:00,
2013-01-11 21:13:00,17.3,9.5,29.94,ENE,68,0.4,0.4,71,0.00,,,0.00,WUHU216HW,2013-01-12 04:13:00,
2013-01-11 21:23:00,16.9,9.1,29.94,ENE,68,0.0,0.2,71,0.00,,,0.00,WUHU216HW,2013-01-12 04:23:00,
2013-01-11 21:33:00,16.6,9.1,29.94,ENE,68,0.0,0.0,72,0.00,,,0.00,WUHU216HW,2013-01-12 04:33:00,
2013-01-11 21:43:00,16.2,8.7,29.94,ENE,68,0.0,0.0,72,0.00,,,0.00,WUHU216HW,2013-01-12 04:43:00,
2013-01-11 21:53:00,16.0,8.8,29.94,ENE,68,0.4,1.8,73,0.00,,,0.00,WUHU216HW,2013-01-12 04:53:00,
2013-01-11 22:03:00,15.5,8.3,29.94,ENE,68,0.0,1.1,73,0.00,,,0.00,WUHU216HW,2013-01-12 05:03:00,
2013-01-11 22:13:00,15.1,8.0,29.95,ENE,68,0.4,0.4,73,0.00,,,0.00,WUHU216HW,2013-01-12 05:13:00,
2013-01-11 22:23:00,14.9,8.1,29.95,ENE,68,0.2,0.9,74,0.00,,,0.00,WUHU216HW,2013-01-12 05:23:00,
2013-01-11 22:33:00,14.8,7.9,29.95,ENE,68,1.1,1.1,74,0.00,,,0.00,WUHU216HW,2013-01-12 05:33:00,
2013-01-11 22:43:00,14.4,7.7,29.96,ENE,68,0.7,1.6,74,0.00,,,0.00,WUHU216HW,2013-01-12 05:43:00,
2013-01-11 22:54:00,14.0,7.3,29.95,ENE,68,1.1,1.8,74,0.00,,,0.00,WUHU216HW,2013-01-12 05:54:00,
2013-01-11 23:04:00,13.9,7.1,29.96,ENE,68,0.0,0.9,74,0.00,,,0.00,WUHU216HW,2013-01-12 06:04:00,
2013-01-11 23:14:00,13.7,7.2,29.96,ENE,68,1.1,1.1,75,0.00,,,0.00,WUHU216HW,2013-01-12 06:14:00,
2013-01-11 23:24:00,13.5,7.0,29.96,ENE,68,1.8,1.8,75,0.00,,,0.00,WUHU216HW,2013-01-12 06:24:00,
2013-01-11 23:34:00,13.5,7.3,29.96,ENE,68,0.4,2.5,76,0.00,,,0.00,WUHU216HW,2013-01-12 06:34:00,
2013-01-11 23:44:00,13.5,7.3,29.97,ENE,68,1.3,3.4,76,0.00,,,0.00,WUHU216HW,2013-01-12 06:44:00,
2013-01-11 23:54:00,13.3,7.1,29.97,ENE,68,4.7,4.7,76,0.00,,,0.00,WUHU216HW,2013-01-12 06:54:00,